sensor_id;sensor_type;location;lat;lon;timestamp;P1;durP1;ratioP1;P2;durP2;ratioP2
67278;SDS011;54193;53.746;10.058;2023-08-17T00:02:14;6.43;;;3.30;;
67278;SDS011;54193;53.746;10.058;2023-08-17T00:04:59;6.03;;;3.45;;
67278;SDS011;54193;53.746;10.058;2023-08-17T00:07:46;7.30;;;3.63;;
67278;SDS011;54193;53.746;10.058;2023-08-17T00:10:31;6.63;;;3.80;;
67278;SDS011;54193;53.746;10.058;2023-08-17T00:13:17;9.50;;;3.72;;
67278;SDS011;54193;53.746;10.058;2023-08-17T00:16:03;9.00;;;4.28;;
67278;SDS011;54193;53.746;10.058;2023-08-17T00:18:48;5.85;;;3.55;;
67278;SDS011;54193;53.746;10.058;2023-08-17T00:21:34;6.90;;;4.00;;
67278;SDS011;54193;53.746;10.058;2023-08-17T00:24:21;9.02;;;3.85;;
67278;SDS011;54193;53.746;10.058;2023-08-17T00:27:06;8.73;;;3.70;;
67278;SDS011;54193;53.746;10.058;2023-08-17T00:29:52;8.90;;;3.30;;
67278;SDS011;54193;53.746;10.058;2023-08-17T00:32:38;5.60;;;3.45;;
67278;SDS011;54193;53.746;10.058;2023-08-17T00:35:23;7.50;;;3.67;;
67278;SDS011;54193;53.746;10.058;2023-08-17T00:38:09;7.27;;;3.13;;
67278;SDS011;54193;53.746;10.058;2023-08-17T00:40:55;7.95;;;3.50;;
67278;SDS011;54193;53.746;10.058;2023-08-17T00:43:40;6.32;;;3.45;;
67278;SDS011;54193;53.746;10.058;2023-08-17T00:46:26;8.02;;;3.58;;
67278;SDS011;54193;53.746;10.058;2023-08-17T00:49:13;10.40;;;3.70;;
67278;SDS011;54193;53.746;10.058;2023-08-17T00:51:59;8.07;;;3.92;;
67278;SDS011;54193;53.746;10.058;2023-08-17T00:54:46;9.20;;;3.80;;
67278;SDS011;54193;53.746;10.058;2023-08-17T00:57:31;7.70;;;3.80;;
67278;SDS011;54193;53.746;10.058;2023-08-17T01:00:18;9.68;;;4.13;;
67278;SDS011;54193;53.746;10.058;2023-08-17T01:03:05;8.65;;;4.13;;
67278;SDS011;54193;53.746;10.058;2023-08-17T01:05:50;7.63;;;4.30;;
67278;SDS011;54193;53.746;10.058;2023-08-17T01:08:36;10.82;;;4.20;;
67278;SDS011;54193;53.746;10.058;2023-08-17T01:20:46;10.43;;;4.10;;
67278;SDS011;54193;53.746;10.058;2023-08-17T01:23:31;7.50;;;4.10;;
67278;SDS011;54193;53.746;10.058;2023-08-17T01:26:17;8.47;;;4.20;;
67278;SDS011;54193;53.746;10.058;2023-08-17T01:29:03;6.40;;;3.05;;
67278;SDS011;54193;53.746;10.058;2023-08-17T01:31:52;9.23;;;3.50;;
67278;SDS011;54193;53.746;10.058;2023-08-17T01:34:50;7.30;;;3.67;;
67278;SDS011;54193;53.746;10.058;2023-08-17T01:37:42;7.03;;;3.20;;
67278;SDS011;54193;53.746;10.058;2023-08-17T01:40:30;6.32;;;3.65;;
67278;SDS011;54193;53.746;10.058;2023-08-17T01:43:17;5.70;;;3.30;;
67278;SDS011;54193;53.746;10.058;2023-08-17T01:46:03;7.13;;;3.70;;
67278;SDS011;54193;53.746;10.058;2023-08-17T01:48:49;11.23;;;3.67;;
67278;SDS011;54193;53.746;10.058;2023-08-17T01:51:35;7.38;;;3.78;;
67278;SDS011;54193;53.746;10.058;2023-08-17T01:54:20;9.57;;;3.70;;
67278;SDS011;54193;53.746;10.058;2023-08-17T01:57:06;7.70;;;3.88;;
67278;SDS011;54193;53.746;10.058;2023-08-17T01:59:52;9.32;;;3.95;;
67278;SDS011;54193;53.746;10.058;2023-08-17T02:02:38;7.13;;;3.67;;
67278;SDS011;54193;53.746;10.058;2023-08-17T02:05:24;8.07;;;3.30;;
67278;SDS011;54193;53.746;10.058;2023-08-17T02:08:10;8.88;;;3.63;;
67278;SDS011;54193;53.746;10.058;2023-08-17T02:10:56;7.88;;;3.50;;
67278;SDS011;54193;53.746;10.058;2023-08-17T02:13:42;6.85;;;3.50;;
67278;SDS011;54193;53.746;10.058;2023-08-17T02:16:27;8.55;;;3.60;;
67278;SDS011;54193;53.746;10.058;2023-08-17T02:19:13;6.30;;;3.25;;
67278;SDS011;54193;53.746;10.058;2023-08-17T02:21:59;7.47;;;3.27;;
67278;SDS011;54193;53.746;10.058;2023-08-17T02:24:44;7.32;;;3.50;;
67278;SDS011;54193;53.746;10.058;2023-08-17T02:27:31;6.90;;;3.20;;
67278;SDS011;54193;53.746;10.058;2023-08-17T02:30:17;7.87;;;3.33;;
67278;SDS011;54193;53.746;10.058;2023-08-17T02:33:03;9.38;;;3.50;;
67278;SDS011;54193;53.746;10.058;2023-08-17T02:35:49;10.77;;;3.67;;
67278;SDS011;54193;53.746;10.058;2023-08-17T02:38:35;6.88;;;3.35;;
67278;SDS011;54193;53.746;10.058;2023-08-17T02:41:21;7.82;;;3.75;;
67278;SDS011;54193;53.746;10.058;2023-08-17T02:44:06;7.80;;;3.90;;
67278;SDS011;54193;53.746;10.058;2023-08-17T02:46:52;7.78;;;3.65;;
67278;SDS011;54193;53.746;10.058;2023-08-17T02:49:38;7.53;;;3.53;;
67278;SDS011;54193;53.746;10.058;2023-08-17T02:52:23;7.63;;;3.78;;
67278;SDS011;54193;53.746;10.058;2023-08-17T02:55:09;10.30;;;3.83;;
67278;SDS011;54193;53.746;10.058;2023-08-17T02:57:54;5.90;;;3.40;;
67278;SDS011;54193;53.746;10.058;2023-08-17T03:00:40;7.45;;;3.55;;
67278;SDS011;54193;53.746;10.058;2023-08-17T03:03:26;9.30;;;3.65;;
67278;SDS011;54193;53.746;10.058;2023-08-17T03:06:11;8.07;;;3.55;;
67278;SDS011;54193;53.746;10.058;2023-08-17T03:08:57;9.30;;;3.65;;
67278;SDS011;54193;53.746;10.058;2023-08-17T03:11:43;7.20;;;3.25;;
67278;SDS011;54193;53.746;10.058;2023-08-17T03:14:28;5.97;;;3.20;;
67278;SDS011;54193;53.746;10.058;2023-08-17T03:17:14;8.13;;;3.03;;
67278;SDS011;54193;53.746;10.058;2023-08-17T03:20:00;8.60;;;3.63;;
67278;SDS011;54193;53.746;10.058;2023-08-17T03:22:45;7.45;;;2.85;;
67278;SDS011;54193;53.746;10.058;2023-08-17T03:25:31;7.17;;;3.50;;
67278;SDS011;54193;53.746;10.058;2023-08-17T03:28:17;8.30;;;3.00;;
67278;SDS011;54193;53.746;10.058;2023-08-17T03:31:03;5.57;;;3.25;;
67278;SDS011;54193;53.746;10.058;2023-08-17T03:33:48;5.13;;;2.90;;
67278;SDS011;54193;53.746;10.058;2023-08-17T03:36:34;7.60;;;3.08;;
67278;SDS011;54193;53.746;10.058;2023-08-17T03:39:20;5.28;;;2.40;;
67278;SDS011;54193;53.746;10.058;2023-08-17T03:42:06;7.53;;;3.38;;
67278;SDS011;54193;53.746;10.058;2023-08-17T03:44:51;6.47;;;3.50;;
67278;SDS011;54193;53.746;10.058;2023-08-17T03:47:37;5.45;;;3.10;;
67278;SDS011;54193;53.746;10.058;2023-08-17T03:50:25;7.68;;;3.47;;
67278;SDS011;54193;53.746;10.058;2023-08-17T03:53:12;7.97;;;3.00;;
67278;SDS011;54193;53.746;10.058;2023-08-17T03:55:57;5.32;;;2.90;;
67278;SDS011;54193;53.746;10.058;2023-08-17T03:58:43;5.93;;;2.63;;
67278;SDS011;54193;53.746;10.058;2023-08-17T04:01:29;6.07;;;2.83;;
67278;SDS011;54193;53.746;10.058;2023-08-17T04:04:14;5.60;;;2.72;;
67278;SDS011;54193;53.746;10.058;2023-08-17T04:07:00;8.15;;;3.00;;
67278;SDS011;54193;53.746;10.058;2023-08-17T04:09:46;8.00;;;3.08;;
67278;SDS011;54193;53.746;10.058;2023-08-17T04:12:31;5.10;;;2.50;;
67278;SDS011;54193;53.746;10.058;2023-08-17T04:15:17;5.32;;;3.05;;
67278;SDS011;54193;53.746;10.058;2023-08-17T04:18:03;5.35;;;3.20;;
67278;SDS011;54193;53.746;10.058;2023-08-17T04:20:49;8.93;;;2.93;;
67278;SDS011;54193;53.746;10.058;2023-08-17T04:23:35;8.70;;;3.25;;
67278;SDS011;54193;53.746;10.058;2023-08-17T04:26:20;8.15;;;3.53;;
67278;SDS011;54193;53.746;10.058;2023-08-17T04:29:06;8.90;;;3.42;;
67278;SDS011;54193;53.746;10.058;2023-08-17T04:31:52;7.45;;;3.15;;
67278;SDS011;54193;53.746;10.058;2023-08-17T04:34:38;6.22;;;2.90;;
67278;SDS011;54193;53.746;10.058;2023-08-17T04:37:24;8.00;;;3.60;;
67278;SDS011;54193;53.746;10.058;2023-08-17T04:40:10;6.60;;;3.10;;
67278;SDS011;54193;53.746;10.058;2023-08-17T04:42:55;7.32;;;2.95;;
67278;SDS011;54193;53.746;10.058;2023-08-17T04:45:41;8.77;;;3.88;;
67278;SDS011;54193;53.746;10.058;2023-08-17T04:48:27;9.63;;;3.70;;
67278;SDS011;54193;53.746;10.058;2023-08-17T04:51:13;7.93;;;3.55;;
67278;SDS011;54193;53.746;10.058;2023-08-17T04:54:00;7.75;;;3.42;;
67278;SDS011;54193;53.746;10.058;2023-08-17T04:56:45;9.13;;;3.80;;
67278;SDS011;54193;53.746;10.058;2023-08-17T04:59:31;6.95;;;3.58;;
67278;SDS011;54193;53.746;10.058;2023-08-17T05:02:17;6.97;;;3.40;;
67278;SDS011;54193;53.746;10.058;2023-08-17T05:05:05;8.48;;;3.13;;
67278;SDS011;54193;53.746;10.058;2023-08-17T05:07:52;9.20;;;3.53;;
67278;SDS011;54193;53.746;10.058;2023-08-17T05:10:38;7.95;;;3.38;;
67278;SDS011;54193;53.746;10.058;2023-08-17T05:13:24;8.15;;;3.47;;
67278;SDS011;54193;53.746;10.058;2023-08-17T05:16:09;9.47;;;3.37;;
67278;SDS011;54193;53.746;10.058;2023-08-17T05:18:55;7.38;;;3.28;;
67278;SDS011;54193;53.746;10.058;2023-08-17T05:21:42;8.20;;;3.33;;
67278;SDS011;54193;53.746;10.058;2023-08-17T05:24:27;7.70;;;3.50;;
67278;SDS011;54193;53.746;10.058;2023-08-17T05:27:13;7.70;;;3.55;;
67278;SDS011;54193;53.746;10.058;2023-08-17T05:29:59;9.88;;;4.40;;
67278;SDS011;54193;53.746;10.058;2023-08-17T05:32:44;9.55;;;4.32;;
67278;SDS011;54193;53.746;10.058;2023-08-17T05:35:30;10.03;;;4.10;;
67278;SDS011;54193;53.746;10.058;2023-08-17T05:38:15;9.95;;;4.07;;
67278;SDS011;54193;53.746;10.058;2023-08-17T05:41:01;8.82;;;3.97;;
67278;SDS011;54193;53.746;10.058;2023-08-17T05:43:48;7.83;;;4.00;;
67278;SDS011;54193;53.746;10.058;2023-08-17T05:46:34;11.52;;;4.40;;
67278;SDS011;54193;53.746;10.058;2023-08-17T05:49:19;9.63;;;4.10;;
67278;SDS011;54193;53.746;10.058;2023-08-17T05:52:05;9.52;;;4.13;;
67278;SDS011;54193;53.746;10.058;2023-08-17T05:54:51;10.98;;;4.50;;
67278;SDS011;54193;53.746;10.058;2023-08-17T05:57:36;12.80;;;4.57;;
67278;SDS011;54193;53.746;10.058;2023-08-17T06:00:22;11.45;;;4.75;;
67278;SDS011;54193;53.746;10.058;2023-08-17T06:03:08;9.90;;;4.53;;
67278;SDS011;54193;53.746;10.058;2023-08-17T06:05:54;9.00;;;4.30;;
67278;SDS011;54193;53.746;10.058;2023-08-17T06:08:39;10.40;;;5.00;;
67278;SDS011;54193;53.746;10.058;2023-08-17T06:11:25;11.73;;;5.20;;
67278;SDS011;54193;53.746;10.058;2023-08-17T06:14:11;10.00;;;5.30;;
67278;SDS011;54193;53.746;10.058;2023-08-17T06:16:57;12.82;;;4.97;;
67278;SDS011;54193;53.746;10.058;2023-08-17T06:19:43;14.25;;;5.30;;
67278;SDS011;54193;53.746;10.058;2023-08-17T06:22:28;14.52;;;5.60;;
67278;SDS011;54193;53.746;10.058;2023-08-17T06:25:14;12.85;;;5.50;;
67278;SDS011;54193;53.746;10.058;2023-08-17T06:28:00;13.25;;;5.75;;
67278;SDS011;54193;53.746;10.058;2023-08-17T06:30:46;15.80;;;6.27;;
67278;SDS011;54193;53.746;10.058;2023-08-17T06:33:32;15.93;;;7.57;;
67278;SDS011;54193;53.746;10.058;2023-08-17T06:36:18;15.98;;;6.30;;
67278;SDS011;54193;53.746;10.058;2023-08-17T06:39:04;13.17;;;6.10;;
67278;SDS011;54193;53.746;10.058;2023-08-17T06:41:51;13.88;;;6.45;;
67278;SDS011;54193;53.746;10.058;2023-08-17T06:44:37;15.27;;;7.10;;
67278;SDS011;54193;53.746;10.058;2023-08-17T06:47:23;19.58;;;8.00;;
67278;SDS011;54193;53.746;10.058;2023-08-17T06:50:09;19.05;;;7.28;;
67278;SDS011;54193;53.746;10.058;2023-08-17T06:52:54;14.98;;;6.55;;
67278;SDS011;54193;53.746;10.058;2023-08-17T06:55:40;21.35;;;8.25;;
67278;SDS011;54193;53.746;10.058;2023-08-17T06:58:26;17.47;;;6.83;;
67278;SDS011;54193;53.746;10.058;2023-08-17T07:01:11;18.33;;;7.40;;
67278;SDS011;54193;53.746;10.058;2023-08-17T07:03:57;16.73;;;6.32;;
67278;SDS011;54193;53.746;10.058;2023-08-17T07:06:43;14.20;;;6.20;;
67278;SDS011;54193;53.746;10.058;2023-08-17T07:09:29;17.95;;;6.88;;
67278;SDS011;54193;53.746;10.058;2023-08-17T07:12:14;20.02;;;7.85;;
67278;SDS011;54193;53.746;10.058;2023-08-17T07:15:00;19.50;;;7.60;;
67278;SDS011;54193;53.746;10.058;2023-08-17T07:17:45;17.75;;;8.00;;
67278;SDS011;54193;53.746;10.058;2023-08-17T07:20:31;19.38;;;8.30;;
67278;SDS011;54193;53.746;10.058;2023-08-17T07:23:17;19.50;;;7.72;;
67278;SDS011;54193;53.746;10.058;2023-08-17T07:26:02;18.83;;;7.10;;
67278;SDS011;54193;53.746;10.058;2023-08-17T07:28:48;19.33;;;8.32;;
67278;SDS011;54193;53.746;10.058;2023-08-17T07:31:34;19.60;;;8.15;;
67278;SDS011;54193;53.746;10.058;2023-08-17T07:34:22;20.50;;;7.57;;
67278;SDS011;54193;53.746;10.058;2023-08-17T07:37:08;19.77;;;7.90;;
67278;SDS011;54193;53.746;10.058;2023-08-17T07:39:53;21.75;;;8.90;;
67278;SDS011;54193;53.746;10.058;2023-08-17T07:42:39;19.70;;;7.77;;
67278;SDS011;54193;53.746;10.058;2023-08-17T07:45:25;22.38;;;8.68;;
67278;SDS011;54193;53.746;10.058;2023-08-17T07:48:10;16.30;;;7.23;;
67278;SDS011;54193;53.746;10.058;2023-08-17T07:50:56;19.85;;;8.80;;
67278;SDS011;54193;53.746;10.058;2023-08-17T07:53:42;21.15;;;9.05;;
67278;SDS011;54193;53.746;10.058;2023-08-17T07:56:27;21.53;;;7.90;;
67278;SDS011;54193;53.746;10.058;2023-08-17T07:59:13;21.23;;;8.68;;
67278;SDS011;54193;53.746;10.058;2023-08-17T08:01:58;19.10;;;8.23;;
67278;SDS011;54193;53.746;10.058;2023-08-17T08:04:44;19.63;;;8.75;;
67278;SDS011;54193;53.746;10.058;2023-08-17T08:07:30;19.25;;;7.80;;
67278;SDS011;54193;53.746;10.058;2023-08-17T08:10:15;19.92;;;8.13;;
67278;SDS011;54193;53.746;10.058;2023-08-17T08:13:01;20.98;;;8.82;;
67278;SDS011;54193;53.746;10.058;2023-08-17T08:15:47;23.67;;;9.00;;
67278;SDS011;54193;53.746;10.058;2023-08-17T08:18:32;16.50;;;6.70;;
67278;SDS011;54193;53.746;10.058;2023-08-17T08:21:18;19.77;;;8.25;;
67278;SDS011;54193;53.746;10.058;2023-08-17T08:24:04;21.47;;;8.10;;
67278;SDS011;54193;53.746;10.058;2023-08-17T08:26:50;23.15;;;9.98;;
67278;SDS011;54193;53.746;10.058;2023-08-17T08:29:36;21.95;;;9.60;;
67278;SDS011;54193;53.746;10.058;2023-08-17T08:32:21;23.63;;;9.95;;
67278;SDS011;54193;53.746;10.058;2023-08-17T08:35:07;24.23;;;9.68;;
67278;SDS011;54193;53.746;10.058;2023-08-17T08:37:53;24.60;;;9.85;;
67278;SDS011;54193;53.746;10.058;2023-08-17T08:40:41;21.30;;;9.23;;
67278;SDS011;54193;53.746;10.058;2023-08-17T08:43:28;28.97;;;11.60;;
67278;SDS011;54193;53.746;10.058;2023-08-17T08:46:14;26.50;;;10.80;;
67278;SDS011;54193;53.746;10.058;2023-08-17T08:49:03;24.02;;;11.13;;
67278;SDS011;54193;53.746;10.058;2023-08-17T08:51:52;24.07;;;11.73;;
67278;SDS011;54193;53.746;10.058;2023-08-17T08:54:38;25.17;;;11.77;;
67278;SDS011;54193;53.746;10.058;2023-08-17T08:57:27;26.95;;;11.70;;
67278;SDS011;54193;53.746;10.058;2023-08-17T09:00:13;29.13;;;12.18;;
67278;SDS011;54193;53.746;10.058;2023-08-17T09:03:01;28.83;;;12.65;;
67278;SDS011;54193;53.746;10.058;2023-08-17T09:05:49;24.52;;;11.63;;
67278;SDS011;54193;53.746;10.058;2023-08-17T09:08:35;24.33;;;11.05;;
67278;SDS011;54193;53.746;10.058;2023-08-17T09:11:21;24.43;;;11.80;;
67278;SDS011;54193;53.746;10.058;2023-08-17T09:14:07;22.90;;;12.40;;
67278;SDS011;54193;53.746;10.058;2023-08-17T09:16:53;22.65;;;10.48;;
67278;SDS011;54193;53.746;10.058;2023-08-17T09:19:38;22.73;;;10.93;;
67278;SDS011;54193;53.746;10.058;2023-08-17T09:22:25;24.42;;;10.80;;
67278;SDS011;54193;53.746;10.058;2023-08-17T09:25:22;25.05;;;11.38;;
67278;SDS011;54193;53.746;10.058;2023-08-17T09:28:09;26.88;;;10.88;;
67278;SDS011;54193;53.746;10.058;2023-08-17T09:31:01;20.15;;;10.30;;
67278;SDS011;54193;53.746;10.058;2023-08-17T09:33:52;19.80;;;10.07;;
67278;SDS011;54193;53.746;10.058;2023-08-17T09:36:38;22.83;;;10.88;;
67278;SDS011;54193;53.746;10.058;2023-08-17T09:39:24;18.83;;;9.53;;
67278;SDS011;54193;53.746;10.058;2023-08-17T09:42:10;18.30;;;9.55;;
67278;SDS011;54193;53.746;10.058;2023-08-17T09:44:57;20.02;;;9.80;;
67278;SDS011;54193;53.746;10.058;2023-08-17T09:47:46;19.00;;;8.60;;
67278;SDS011;54193;53.746;10.058;2023-08-17T09:50:32;16.30;;;9.10;;
67278;SDS011;54193;53.746;10.058;2023-08-17T09:53:18;18.63;;;9.75;;
67278;SDS011;54193;53.746;10.058;2023-08-17T09:56:07;18.35;;;9.80;;
67278;SDS011;54193;53.746;10.058;2023-08-17T09:58:56;18.67;;;9.60;;
67278;SDS011;54193;53.746;10.058;2023-08-17T10:01:42;18.42;;;9.20;;
67278;SDS011;54193;53.746;10.058;2023-08-17T10:04:28;17.08;;;9.52;;
67278;SDS011;54193;53.746;10.058;2023-08-17T10:07:20;15.97;;;8.50;;
67278;SDS011;54193;53.746;10.058;2023-08-17T10:10:07;17.88;;;9.18;;
67278;SDS011;54193;53.746;10.058;2023-08-17T10:12:59;15.57;;;8.43;;
67278;SDS011;54193;53.746;10.058;2023-08-17T10:22:16;15.52;;;7.88;;
67278;SDS011;54193;53.746;10.058;2023-08-17T10:25:13;16.70;;;7.32;;
67278;SDS011;54193;53.746;10.058;2023-08-17T10:28:00;14.27;;;7.97;;
67278;SDS011;54193;53.746;10.058;2023-08-17T10:30:48;13.73;;;7.55;;
67278;SDS011;54193;53.746;10.058;2023-08-17T10:33:35;12.50;;;7.35;;
67278;SDS011;54193;53.746;10.058;2023-08-17T10:36:20;12.30;;;7.43;;
67278;SDS011;54193;53.746;10.058;2023-08-17T10:42:12;14.23;;;8.30;;
67278;SDS011;54193;53.746;10.058;2023-08-17T10:44:59;13.18;;;7.53;;
67278;SDS011;54193;53.746;10.058;2023-08-17T10:47:46;12.02;;;7.50;;
67278;SDS011;54193;53.746;10.058;2023-08-17T10:50:32;12.80;;;7.40;;
67278;SDS011;54193;53.746;10.058;2023-08-17T10:53:19;11.27;;;6.30;;
67278;SDS011;54193;53.746;10.058;2023-08-17T10:56:06;9.35;;;6.10;;
67278;SDS011;54193;53.746;10.058;2023-08-17T10:58:53;11.05;;;6.15;;
67278;SDS011;54193;53.746;10.058;2023-08-17T11:01:39;9.77;;;7.00;;
67278;SDS011;54193;53.746;10.058;2023-08-17T11:04:25;11.07;;;7.03;;
67278;SDS011;54193;53.746;10.058;2023-08-17T11:07:13;10.57;;;6.53;;
67278;SDS011;54193;53.746;10.058;2023-08-17T11:10:01;10.47;;;6.17;;
67278;SDS011;54193;53.746;10.058;2023-08-17T11:13:16;16.23;;;8.38;;
67278;SDS011;54193;53.746;10.058;2023-08-17T11:16:02;14.70;;;8.48;;
67278;SDS011;54193;53.746;10.058;2023-08-17T11:18:48;12.88;;;8.13;;
67278;SDS011;54193;53.746;10.058;2023-08-17T11:21:35;12.43;;;7.43;;
67278;SDS011;54193;53.746;10.058;2023-08-17T11:24:21;13.52;;;7.63;;
67278;SDS011;54193;53.746;10.058;2023-08-17T11:27:07;10.55;;;6.63;;
67278;SDS011;54193;53.746;10.058;2023-08-17T11:29:53;15.27;;;8.10;;
67278;SDS011;54193;53.746;10.058;2023-08-17T11:32:38;12.85;;;7.10;;
67278;SDS011;54193;53.746;10.058;2023-08-17T11:35:24;12.00;;;7.15;;
67278;SDS011;54193;53.746;10.058;2023-08-17T11:38:10;11.60;;;6.93;;
67278;SDS011;54193;53.746;10.058;2023-08-17T11:40:57;11.13;;;6.65;;
67278;SDS011;54193;53.746;10.058;2023-08-17T11:43:43;10.18;;;6.30;;
67278;SDS011;54193;53.746;10.058;2023-08-17T11:46:30;12.48;;;7.30;;
67278;SDS011;54193;53.746;10.058;2023-08-17T11:49:17;10.30;;;7.15;;
67278;SDS011;54193;53.746;10.058;2023-08-17T11:52:03;8.18;;;5.45;;
67278;SDS011;54193;53.746;10.058;2023-08-17T11:54:49;10.45;;;5.13;;
67278;SDS011;54193;53.746;10.058;2023-08-17T11:57:37;9.57;;;5.20;;
67278;SDS011;54193;53.746;10.058;2023-08-17T12:00:23;8.90;;;4.95;;
67278;SDS011;54193;53.746;10.058;2023-08-17T12:03:14;8.77;;;5.00;;
67278;SDS011;54193;53.746;10.058;2023-08-17T12:06:01;8.13;;;5.13;;
67278;SDS011;54193;53.746;10.058;2023-08-17T12:08:47;9.20;;;6.43;;
67278;SDS011;54193;53.746;10.058;2023-08-17T12:11:33;10.07;;;6.38;;
67278;SDS011;54193;53.746;10.058;2023-08-17T12:14:18;10.35;;;6.07;;
67278;SDS011;54193;53.746;10.058;2023-08-17T12:17:05;10.77;;;6.90;;
67278;SDS011;54193;53.746;10.058;2023-08-17T12:19:54;10.50;;;6.80;;
67278;SDS011;54193;53.746;10.058;2023-08-17T12:22:40;10.90;;;6.97;;
67278;SDS011;54193;53.746;10.058;2023-08-17T12:25:26;11.27;;;7.37;;
67278;SDS011;54193;53.746;10.058;2023-08-17T12:28:12;10.63;;;7.20;;
67278;SDS011;54193;53.746;10.058;2023-08-17T12:31:01;9.85;;;6.35;;
67278;SDS011;54193;53.746;10.058;2023-08-17T12:33:49;12.27;;;6.90;;
67278;SDS011;54193;53.746;10.058;2023-08-17T12:36:35;9.80;;;6.60;;
67278;SDS011;54193;53.746;10.058;2023-08-17T12:39:22;12.20;;;7.32;;
67278;SDS011;54193;53.746;10.058;2023-08-17T12:42:08;13.30;;;7.35;;
67278;SDS011;54193;53.746;10.058;2023-08-17T12:44:54;11.20;;;7.17;;
67278;SDS011;54193;53.746;10.058;2023-08-17T12:47:39;11.88;;;7.78;;
67278;SDS011;54193;53.746;10.058;2023-08-17T12:50:25;12.60;;;7.82;;
67278;SDS011;54193;53.746;10.058;2023-08-17T12:53:11;14.77;;;8.37;;
67278;SDS011;54193;53.746;10.058;2023-08-17T12:55:56;14.52;;;8.48;;
67278;SDS011;54193;53.746;10.058;2023-08-17T12:58:43;15.13;;;8.17;;
67278;SDS011;54193;53.746;10.058;2023-08-17T13:01:29;14.38;;;7.85;;
67278;SDS011;54193;53.746;10.058;2023-08-17T13:04:15;11.55;;;7.25;;
67278;SDS011;54193;53.746;10.058;2023-08-17T13:07:00;10.50;;;5.80;;
67278;SDS011;54193;53.746;10.058;2023-08-17T13:09:46;10.63;;;6.72;;
67278;SDS011;54193;53.746;10.058;2023-08-17T13:12:32;11.10;;;6.72;;
67278;SDS011;54193;53.746;10.058;2023-08-17T13:15:17;9.83;;;6.03;;
67278;SDS011;54193;53.746;10.058;2023-08-17T13:18:03;10.43;;;6.47;;
67278;SDS011;54193;53.746;10.058;2023-08-17T13:20:49;12.93;;;6.57;;
67278;SDS011;54193;53.746;10.058;2023-08-17T13:23:34;9.45;;;6.07;;
67278;SDS011;54193;53.746;10.058;2023-08-17T13:26:21;12.23;;;7.15;;
67278;SDS011;54193;53.746;10.058;2023-08-17T13:29:07;11.73;;;7.05;;
67278;SDS011;54193;53.746;10.058;2023-08-17T13:31:54;11.63;;;6.45;;
67278;SDS011;54193;53.746;10.058;2023-08-17T13:34:40;9.67;;;6.10;;
67278;SDS011;54193;53.746;10.058;2023-08-17T13:37:25;8.88;;;5.07;;
67278;SDS011;54193;53.746;10.058;2023-08-17T13:40:13;9.95;;;4.55;;
67278;SDS011;54193;53.746;10.058;2023-08-17T13:42:59;6.87;;;3.20;;
67278;SDS011;54193;53.746;10.058;2023-08-17T13:45:45;5.38;;;3.10;;
67278;SDS011;54193;53.746;10.058;2023-08-17T13:48:31;4.05;;;2.30;;
67278;SDS011;54193;53.746;10.058;2023-08-17T13:51:17;4.38;;;2.40;;
67278;SDS011;54193;53.746;10.058;2023-08-17T13:54:02;3.42;;;2.35;;
67278;SDS011;54193;53.746;10.058;2023-08-17T13:56:48;3.70;;;2.50;;
67278;SDS011;54193;53.746;10.058;2023-08-17T13:59:34;6.28;;;2.40;;
67278;SDS011;54193;53.746;10.058;2023-08-17T14:02:20;4.33;;;2.33;;
67278;SDS011;54193;53.746;10.058;2023-08-17T14:05:06;4.32;;;2.40;;
67278;SDS011;54193;53.746;10.058;2023-08-17T14:07:51;5.03;;;2.33;;
67278;SDS011;54193;53.746;10.058;2023-08-17T14:10:37;2.40;;;1.40;;
67278;SDS011;54193;53.746;10.058;2023-08-17T14:13:23;4.85;;;2.17;;
67278;SDS011;54193;53.746;10.058;2023-08-17T14:16:08;4.55;;;2.20;;
67278;SDS011;54193;53.746;10.058;2023-08-17T14:18:54;3.33;;;1.65;;
67278;SDS011;54193;53.746;10.058;2023-08-17T14:21:40;3.75;;;2.10;;
67278;SDS011;54193;53.746;10.058;2023-08-17T14:24:25;4.72;;;2.42;;
67278;SDS011;54193;53.746;10.058;2023-08-17T14:27:11;3.60;;;1.90;;
67278;SDS011;54193;53.746;10.058;2023-08-17T14:29:57;3.37;;;2.00;;
67278;SDS011;54193;53.746;10.058;2023-08-17T14:32:46;3.35;;;2.22;;
67278;SDS011;54193;53.746;10.058;2023-08-17T14:35:32;3.17;;;1.52;;
67278;SDS011;54193;53.746;10.058;2023-08-17T14:38:17;2.80;;;1.60;;
67278;SDS011;54193;53.746;10.058;2023-08-17T14:41:03;5.18;;;1.90;;
67278;SDS011;54193;53.746;10.058;2023-08-17T14:43:49;4.68;;;2.33;;
67278;SDS011;54193;53.746;10.058;2023-08-17T14:46:35;4.47;;;2.20;;
67278;SDS011;54193;53.746;10.058;2023-08-17T14:49:23;3.53;;;2.05;;
67278;SDS011;54193;53.746;10.058;2023-08-17T14:52:09;3.80;;;2.05;;
67278;SDS011;54193;53.746;10.058;2023-08-17T14:54:55;3.42;;;2.03;;
67278;SDS011;54193;53.746;10.058;2023-08-17T14:57:40;4.73;;;2.40;;
67278;SDS011;54193;53.746;10.058;2023-08-17T15:00:26;5.22;;;2.38;;
67278;SDS011;54193;53.746;10.058;2023-08-17T15:03:12;5.25;;;2.58;;
67278;SDS011;54193;53.746;10.058;2023-08-17T15:05:58;3.77;;;2.20;;
67278;SDS011;54193;53.746;10.058;2023-08-17T15:08:44;5.00;;;2.60;;
67278;SDS011;54193;53.746;10.058;2023-08-17T15:11:29;5.50;;;2.97;;
67278;SDS011;54193;53.746;10.058;2023-08-17T15:14:15;4.80;;;3.20;;
67278;SDS011;54193;53.746;10.058;2023-08-17T15:17:01;6.60;;;3.45;;
67278;SDS011;54193;53.746;10.058;2023-08-17T15:19:46;6.28;;;3.15;;
67278;SDS011;54193;53.746;10.058;2023-08-17T15:22:32;5.00;;;2.50;;
67278;SDS011;54193;53.746;10.058;2023-08-17T15:25:18;6.07;;;3.13;;
67278;SDS011;54193;53.746;10.058;2023-08-17T15:28:03;6.03;;;3.00;;
67278;SDS011;54193;53.746;10.058;2023-08-17T15:30:50;5.38;;;3.13;;
67278;SDS011;54193;53.746;10.058;2023-08-17T15:33:50;5.83;;;3.33;;
67278;SDS011;54193;53.746;10.058;2023-08-17T15:36:36;5.57;;;3.67;;
67278;SDS011;54193;53.746;10.058;2023-08-17T15:39:22;5.80;;;3.95;;
67278;SDS011;54193;53.746;10.058;2023-08-17T15:42:07;5.28;;;3.40;;
67278;SDS011;54193;53.746;10.058;2023-08-17T15:44:53;5.20;;;3.30;;
67278;SDS011;54193;53.746;10.058;2023-08-17T15:47:39;6.57;;;4.13;;
67278;SDS011;54193;53.746;10.058;2023-08-17T15:50:24;6.43;;;3.70;;
67278;SDS011;54193;53.746;10.058;2023-08-17T15:53:10;5.70;;;3.93;;
67278;SDS011;54193;53.746;10.058;2023-08-17T15:55:55;6.20;;;3.28;;
67278;SDS011;54193;53.746;10.058;2023-08-17T15:58:41;5.70;;;3.03;;
67278;SDS011;54193;53.746;10.058;2023-08-17T16:01:27;8.30;;;4.07;;
67278;SDS011;54193;53.746;10.058;2023-08-17T16:04:14;6.82;;;3.60;;
67278;SDS011;54193;53.746;10.058;2023-08-17T16:06:59;8.38;;;4.40;;
67278;SDS011;54193;53.746;10.058;2023-08-17T16:09:45;8.68;;;4.70;;
67278;SDS011;54193;53.746;10.058;2023-08-17T16:12:31;8.27;;;4.50;;
67278;SDS011;54193;53.746;10.058;2023-08-17T16:15:16;6.72;;;4.10;;
67278;SDS011;54193;53.746;10.058;2023-08-17T16:18:02;8.95;;;4.80;;
67278;SDS011;54193;53.746;10.058;2023-08-17T16:20:48;8.20;;;4.20;;
67278;SDS011;54193;53.746;10.058;2023-08-17T16:23:33;7.18;;;5.07;;
67278;SDS011;54193;53.746;10.058;2023-08-17T16:26:19;8.57;;;4.65;;
67278;SDS011;54193;53.746;10.058;2023-08-17T16:29:05;7.20;;;4.17;;
67278;SDS011;54193;53.746;10.058;2023-08-17T16:32:03;5.93;;;3.55;;
67278;SDS011;54193;53.746;10.058;2023-08-17T16:34:49;6.00;;;3.17;;
67278;SDS011;54193;53.746;10.058;2023-08-17T16:37:35;6.57;;;3.05;;
67278;SDS011;54193;53.746;10.058;2023-08-17T16:40:20;5.95;;;2.55;;